Upstream stations:
Downstream station:
SHEF ID: WANO2 Cimarron River near Waynoka, OK
STATION TYPE:
Regulating: Stage = 9.00, Flow = 4032
PRECIP STAGE RIV-FLOW BAT-LOAD
in ft cfs volt
Ccp-Rev Ccp-Rev Ccp-Rev Ccp-Rev
(US/Central)
02/04 00:00 0.00 5.60 26 12.57
02/04 01:00 0.00 5.65 39 12.49
02/04 02:00 0.00 5.65 39 12.41
02/04 03:00 0.00 5.65 39 12.41
02/04 04:00 0.00 5.66 40 12.33
02/04 05:00 0.00 5.68 43 12.33
02/04 06:00 0.00 5.69 45 12.25
02/04 07:00 0.00 5.70 46 12.25
02/04 08:00 0.00 5.71 48 12.25
02/04 09:00 0.00 5.72 49 12.25
02/04 10:00 0.00 5.64 37 12.41
02/04 11:00 0.03 5.62 32 12.73
02/04 12:00 0.03 5.63 35 13.84
02/04 13:00 0.02 5.62 32 13.92
02/04 14:00 0.00 5.63 35 13.92
02/04 15:00 0.07 5.63 35 13.92
02/04 16:00 0.05 5.62 32 13.84
02/04 17:00 0.02 5.64 37 13.84
02/04 18:00 0.00 5.67 42 13.68
02/04 19:00 0.00 5.73 51 13.21
02/04 20:00 0.00 5.76 56 12.97
02/04 21:00 0.00 5.82 68 12.89
02/04 22:00 0.00 5.86 76 12.81
02/04 23:00 0.00 5.87 78 12.73